Terminal Aerodrome Forecast
Issued by NWS

Home | Current Version | Previous Version | Text Only | Print | Product List | Glossary On
Versions: 1 2 3 4 5 6 7 8 9 10 11 12 13 14 15 16 17 18 19 20 21
041
FTUS44 KJAN 181550 AAB
TAFHKS
TAF AMD
KHKS 181550Z 1816/1912 VRB03KT 4SM BR OVC003
     FM181700 09004KT P6SM BKN015 OVC025
     FM181900 09007KT P6SM BKN025 OVC070
     FM190400 14008KT P6SM BKN015 OVC035=

USA.gov is the U.S. government's official web portal to all federal, state and local government web resources and services.